Time;durP1;ratioP1;P1;durP2;ratioP2;P2;SDS_P1;SDS_P2;PMS_P1;PMS_P2;Temp;Humidity;BMP_temperature;BMP_pressure;BME280_temperature;BME280_humidity;BME280_pressure;Samples;Min_cycle;Max_cycle;Signal;HPM_P1;HPM_P2
2022/11/25 00:01:09;;;;;;;0.00;0.00;;;;;;;;;;5094636;28;20607;-69
2022/11/25 00:03:38;;;;;;;0.10;0.10;;;;;;;;;;5077474;28;20654;-70
2022/11/25 00:06:13;;;;;;;0.10;0.10;;;;;;;;;;5077112;28;20663;-70
2022/11/25 00:08:41;;;;;;;0.00;0.00;;;;;;;;;;5072571;28;20658;-70
2022/11/25 00:11:08;;;;;;;0.10;0.10;;;;;;;;;;5071366;28;20616;-69
2022/11/25 00:13:36;;;;;;;0.00;0.00;;;;;;;;;;5073011;28;20609;-70
2022/11/25 00:16:04;;;;;;;0.10;0.10;;;;;;;;;;5071893;28;20644;-69
2022/11/25 00:18:32;;;;;;;0.10;0.10;;;;;;;;;;5073510;28;20716;-69
2022/11/25 00:21:05;;;;;;;0.10;0.10;;;;;;;;;;5077166;28;20615;-69
2022/11/25 00:23:33;;;;;;;0.10;0.10;;;;;;;;;;5073341;28;20605;-70
2022/11/25 00:26:06;;;;;;;0.10;0.10;;;;;;;;;;5073525;28;20655;-70
2022/11/25 00:28:33;;;;;;;0.10;0.10;;;;;;;;;;5072568;28;20743;-70
2022/11/25 00:31:04;;;;;;;0.00;0.00;;;;;;;;;;5072790;28;20616;-70
2022/11/25 00:33:32;;;;;;;0.10;0.10;;;;;;;;;;5074350;28;20631;-69
2022/11/25 00:36:02;;;;;;;0.10;0.10;;;;;;;;;;5076555;28;20739;-70
2022/11/25 00:38:30;;;;;;;0.10;0.10;;;;;;;;;;5079076;28;20658;-70
2022/11/25 00:46:24;;;;;;;0.10;0.10;;;;;;;;;;5073137;28;20644;-69
2022/11/25 00:48:51;;;;;;;0.10;0.10;;;;;;;;;;5070141;28;20675;-70
2022/11/25 00:51:20;;;;;;;0.10;0.10;;;;;;;;;;5071081;28;20616;-69
2022/11/25 00:53:48;;;;;;;0.10;0.10;;;;;;;;;;5074148;28;21184;-69
2022/11/25 00:56:15;;;;;;;0.10;0.10;;;;;;;;;;5070498;28;20671;-70
2022/11/25 00:58:43;;;;;;;0.03;0.03;;;;;;;;;;5073675;28;20621;-70
2022/11/25 01:01:12;;;;;;;0.10;0.10;;;;;;;;;;5070278;28;20689;-70
2022/11/25 01:03:41;;;;;;;0.10;0.10;;;;;;;;;;5070577;28;20625;-69
2022/11/25 01:06:10;;;;;;;0.10;0.10;;;;;;;;;;5067308;28;20663;-70
2022/11/25 01:08:39;;;;;;;0.10;0.10;;;;;;;;;;5073286;28;20688;-69
2022/11/25 01:11:07;;;;;;;0.10;0.10;;;;;;;;;;5067945;28;20656;-70
2022/11/25 01:13:35;;;;;;;0.10;0.10;;;;;;;;;;5069525;28;20623;-72
2022/11/25 01:16:03;;;;;;;0.10;0.10;;;;;;;;;;5067058;28;20676;-69
2022/11/25 01:18:30;;;;;;;0.10;0.10;;;;;;;;;;5069045;28;20619;-70
2022/11/25 01:21:05;;;;;;;0.10;0.10;;;;;;;;;;5068081;28;21039;-70
2022/11/25 01:23:32;;;;;;;0.10;0.10;;;;;;;;;;5072892;28;20622;-69
2022/11/25 01:26:03;;;;;;;0.00;0.00;;;;;;;;;;5076297;28;20636;-70
2022/11/25 01:28:31;;;;;;;0.10;0.10;;;;;;;;;;5071362;28;20673;-70
2022/11/25 01:31:02;;;;;;;0.10;0.10;;;;;;;;;;5073175;28;20714;-70
2022/11/25 01:33:31;;;;;;;0.10;0.10;;;;;;;;;;5067167;28;20667;-70
2022/11/25 01:36:01;;;;;;;0.10;0.10;;;;;;;;;;5067821;28;20625;-70
2022/11/25 01:38:29;;;;;;;0.10;0.10;;;;;;;;;;5066152;28;20996;-70
2022/11/25 01:40:56;;;;;;;0.10;0.10;;;;;;;;;;5070825;28;20597;-70
2022/11/25 01:43:26;;;;;;;0.10;0.10;;;;;;;;;;5069992;28;20645;-70
2022/11/25 01:45:53;;;;;;;0.10;0.10;;;;;;;;;;5071378;28;20653;-70
2022/11/25 01:48:23;;;;;;;0.10;0.10;;;;;;;;;;5070172;28;20656;-70
2022/11/25 01:50:51;;;;;;;0.10;0.10;;;;;;;;;;5068141;28;20668;-70
2022/11/25 01:53:19;;;;;;;0.10;0.10;;;;;;;;;;5074077;28;20613;-70
2022/11/25 01:55:49;;;;;;;0.10;0.10;;;;;;;;;;5072608;28;20654;-70
2022/11/25 01:58:18;;;;;;;0.10;0.10;;;;;;;;;;5067072;28;20646;-70
2022/11/25 02:00:50;;;;;;;0.10;0.10;;;;;;;;;;5065746;28;20660;-69
2022/11/25 02:03:19;;;;;;;0.10;0.10;;;;;;;;;;5068337;28;20644;-70
2022/11/25 02:05:51;;;;;;;0.10;0.10;;;;;;;;;;5066002;28;20748;-70
2022/11/25 02:08:20;;;;;;;0.10;0.10;;;;;;;;;;5071011;28;21106;-70
2022/11/25 02:10:47;;;;;;;0.10;0.10;;;;;;;;;;5076656;28;20624;-70
2022/11/25 02:13:14;;;;;;;0.10;0.10;;;;;;;;;;5073259;28;20635;-72
2022/11/25 02:15:42;;;;;;;0.10;0.10;;;;;;;;;;5075181;28;20652;-72
2022/11/25 02:18:11;;;;;;;0.10;0.10;;;;;;;;;;5073110;28;20604;-72
2022/11/25 02:20:39;;;;;;;0.10;0.10;;;;;;;;;;5072004;28;20636;-72
2022/11/25 02:23:10;;;;;;;0.10;0.10;;;;;;;;;;5095249;28;20595;-72
2022/11/25 02:25:41;;;;;;;0.10;0.10;;;;;;;;;;5071991;28;20778;-72
2022/11/25 02:28:15;;;;;;;0.10;0.10;;;;;;;;;;5082095;28;20640;-69
2022/11/25 02:30:42;;;;;;;0.10;0.10;;;;;;;;;;5073363;28;20620;-70
2022/11/25 02:33:10;;;;;;;0.10;0.10;;;;;;;;;;5091885;28;20635;-70
2022/11/25 02:35:39;;;;;;;0.00;0.00;;;;;;;;;;5074348;28;20876;-69
2022/11/25 02:38:09;;;;;;;0.10;0.10;;;;;;;;;;5071969;28;20615;-70
2022/11/25 02:40:42;;;;;;;0.10;0.10;;;;;;;;;;5073288;28;20612;-70
2022/11/25 02:43:09;;;;;;;0.10;0.10;;;;;;;;;;5081291;28;20616;-70
2022/11/25 02:45:43;;;;;;;0.00;0.00;;;;;;;;;;5089931;28;20627;-70
2022/11/25 02:48:11;;;;;;;0.10;0.10;;;;;;;;;;5093640;28;21724;-70
2022/11/25 02:50:38;;;;;;;0.10;0.10;;;;;;;;;;5086787;28;20610;-70
2022/11/25 02:53:05;;;;;;;0.10;0.10;;;;;;;;;;5089699;28;20614;-70
2022/11/25 02:55:33;;;;;;;0.10;0.10;;;;;;;;;;5093167;28;20652;-70
2022/11/25 02:58:02;;;;;;;0.10;0.10;;;;;;;;;;5071896;28;20652;-70
2022/11/25 03:00:29;;;;;;;0.10;0.10;;;;;;;;;;5072953;28;20624;-69
2022/11/25 03:02:56;;;;;;;0.10;0.10;;;;;;;;;;5075409;28;20619;-69
2022/11/25 03:05:24;;;;;;;0.10;0.10;;;;;;;;;;5074531;28;20748;-69
2022/11/25 03:07:52;;;;;;;0.00;0.00;;;;;;;;;;5075506;28;20693;-70
2022/11/25 03:10:21;;;;;;;0.10;0.10;;;;;;;;;;5078340;28;20765;-70
2022/11/25 03:12:49;;;;;;;0.10;0.10;;;;;;;;;;5080494;28;20630;-70
2022/11/25 03:15:19;;;;;;;0.10;0.10;;;;;;;;;;5079250;28;20717;-70
2022/11/25 03:17:46;;;;;;;0.10;0.10;;;;;;;;;;5080661;28;20667;-70
2022/11/25 03:20:14;;;;;;;0.10;0.10;;;;;;;;;;5077232;28;20668;-70
2022/11/25 03:22:42;;;;;;;0.10;0.10;;;;;;;;;;5078803;28;20638;-70
2022/11/25 03:25:09;;;;;;;0.10;0.10;;;;;;;;;;5080414;28;20667;-70
2022/11/25 03:27:37;;;;;;;0.10;0.10;;;;;;;;;;5075609;28;20739;-70
2022/11/25 03:30:06;;;;;;;0.10;0.10;;;;;;;;;;5080129;28;20628;-70
2022/11/25 03:32:35;;;;;;;0.10;0.10;;;;;;;;;;5094735;28;20632;-70
2022/11/25 03:35:02;;;;;;;0.10;0.10;;;;;;;;;;5076952;28;20749;-70
2022/11/25 03:37:30;;;;;;;0.10;0.10;;;;;;;;;;5076479;28;20619;-70
2022/11/25 03:39:58;;;;;;;0.10;0.10;;;;;;;;;;5081939;28;20630;-70
2022/11/25 03:42:25;;;;;;;0.10;0.10;;;;;;;;;;5083273;28;20639;-70
2022/11/25 03:44:52;;;;;;;0.10;0.10;;;;;;;;;;5073679;28;20624;-70
2022/11/25 03:47:20;;;;;;;0.10;0.10;;;;;;;;;;5095663;28;20694;-70
2022/11/25 03:49:49;;;;;;;0.10;0.10;;;;;;;;;;5080388;28;21415;-70
2022/11/25 03:52:16;;;;;;;0.10;0.10;;;;;;;;;;5082936;28;20622;-70
2022/11/25 03:54:45;;;;;;;0.10;0.10;;;;;;;;;;5079426;28;20673;-70
2022/11/25 03:57:21;;;;;;;0.10;0.10;;;;;;;;;;5072892;28;20623;-70
2022/11/25 03:59:49;;;;;;;0.10;0.10;;;;;;;;;;5079607;28;20619;-70
2022/11/25 04:02:17;;;;;;;0.10;0.10;;;;;;;;;;5075162;28;20620;-70
2022/11/25 04:04:45;;;;;;;0.10;0.10;;;;;;;;;;5099330;28;20683;-70
2022/11/25 04:07:14;;;;;;;0.10;0.10;;;;;;;;;;5078388;28;20637;-71
2022/11/25 04:09:41;;;;;;;0.10;0.10;;;;;;;;;;5075516;28;20675;-70
2022/11/25 04:15:02;;;;;;;0.10;0.10;;;;;;;;;;5069905;28;20667;-70
2022/11/25 04:17:29;;;;;;;0.10;0.10;;;;;;;;;;5098302;28;20626;-70
2022/11/25 04:19:57;;;;;;;0.10;0.10;;;;;;;;;;5073850;28;20644;-70
2022/11/25 04:22:26;;;;;;;0.10;0.10;;;;;;;;;;5074519;28;20710;-70
2022/11/25 04:24:54;;;;;;;0.10;0.10;;;;;;;;;;5074260;28;20619;-70
2022/11/25 04:27:25;;;;;;;0.10;0.10;;;;;;;;;;5072357;28;20631;-70
2022/11/25 04:29:54;;;;;;;0.10;0.10;;;;;;;;;;5072086;28;20656;-70
2022/11/25 04:32:22;;;;;;;0.00;0.00;;;;;;;;;;5092688;28;20595;-70
2022/11/25 04:34:50;;;;;;;0.10;0.10;;;;;;;;;;5076915;28;20654;-70
2022/11/25 04:37:18;;;;;;;0.10;0.10;;;;;;;;;;5075930;28;20643;-71
2022/11/25 04:39:47;;;;;;;0.10;0.10;;;;;;;;;;5083150;28;20619;-71
2022/11/25 04:42:33;;;;;;;0.10;0.10;;;;;;;;;;5072588;28;20715;-71
2022/11/25 04:45:04;;;;;;;0.10;0.10;;;;;;;;;;5078218;28;20659;-70
2022/11/25 04:47:33;;;;;;;0.10;0.10;;;;;;;;;;5073622;28;20646;-70
2022/11/25 04:50:00;;;;;;;0.10;0.10;;;;;;;;;;5075296;28;20738;-71
2022/11/25 04:52:28;;;;;;;0.08;0.08;;;;;;;;;;5086774;28;20718;-70
2022/11/25 04:54:57;;;;;;;0.10;0.10;;;;;;;;;;5072765;28;20198;-70
2022/11/25 04:57:24;;;;;;;0.00;0.00;;;;;;;;;;5077223;28;20611;-70
2022/11/25 04:59:51;;;;;;;0.10;0.10;;;;;;;;;;5080409;28;20725;-70
2022/11/25 05:02:20;;;;;;;0.10;0.10;;;;;;;;;;5079308;28;20639;-71
2022/11/25 05:05:07;;;;;;;0.10;0.10;;;;;;;;;;5089003;28;20729;-71
2022/11/25 05:07:35;;;;;;;0.20;0.20;;;;;;;;;;5071696;28;20727;-70
2022/11/25 05:10:04;;;;;;;0.10;0.10;;;;;;;;;;5072138;28;20655;-71
2022/11/25 05:12:36;;;;;;;0.10;0.10;;;;;;;;;;5070519;28;20621;-71
2022/11/25 05:15:08;;;;;;;0.10;0.10;;;;;;;;;;5072175;28;20656;-71
2022/11/25 05:17:38;;;;;;;0.10;0.10;;;;;;;;;;5070870;28;20617;-71
2022/11/25 05:20:07;;;;;;;0.10;0.10;;;;;;;;;;5069641;28;20624;-71
2022/11/25 05:22:35;;;;;;;0.10;0.10;;;;;;;;;;5075204;28;21230;-71
2022/11/25 05:25:07;;;;;;;0.10;0.10;;;;;;;;;;5068582;28;20706;-71
2022/11/25 05:27:41;;;;;;;0.10;0.10;;;;;;;;;;5079096;28;20624;-71
2022/11/25 05:30:10;;;;;;;0.10;0.10;;;;;;;;;;5075867;28;20663;-70
2022/11/25 05:32:39;;;;;;;0.10;0.10;;;;;;;;;;5071202;28;20623;-70
2022/11/25 05:35:09;;;;;;;0.10;0.10;;;;;;;;;;5070037;28;21224;-71
2022/11/25 05:37:39;;;;;;;0.10;0.10;;;;;;;;;;5073574;28;20601;-70
2022/11/25 05:40:10;;;;;;;0.10;0.10;;;;;;;;;;5079381;28;20612;-70
2022/11/25 05:43:00;;;;;;;0.10;0.10;;;;;;;;;;5070472;28;20619;-70
2022/11/25 05:45:29;;;;;;;0.10;0.10;;;;;;;;;;5069981;28;21069;-68
2022/11/25 05:47:58;;;;;;;0.10;0.10;;;;;;;;;;5074738;28;20620;-72
2022/11/25 05:50:27;;;;;;;0.10;0.10;;;;;;;;;;5073329;28;20656;-72
2022/11/25 05:53:05;;;;;;;0.10;0.10;;;;;;;;;;5072347;28;20632;-72
2022/11/25 05:55:36;;;;;;;0.10;0.10;;;;;;;;;;5073950;28;20738;-73
2022/11/25 05:58:08;;;;;;;0.10;0.10;;;;;;;;;;5068296;28;20640;-72
2022/11/25 06:00:36;;;;;;;0.10;0.10;;;;;;;;;;5069412;28;20660;-72
2022/11/25 06:03:08;;;;;;;0.10;0.10;;;;;;;;;;5065886;28;20638;-72
2022/11/25 06:05:37;;;;;;;0.10;0.10;;;;;;;;;;5068509;28;20735;-72
2022/11/25 06:08:05;;;;;;;0.10;0.10;;;;;;;;;;5061690;28;20622;-72
2022/11/25 06:10:32;;;;;;;0.10;0.10;;;;;;;;;;5067884;28;20650;-72
2022/11/25 06:13:01;;;;;;;0.10;0.10;;;;;;;;;;5066820;28;20613;-72
2022/11/25 06:15:28;;;;;;;0.10;0.10;;;;;;;;;;5069750;28;20707;-72
2022/11/25 06:17:58;;;;;;;0.10;0.10;;;;;;;;;;5072553;28;20624;-70
2022/11/25 06:20:27;;;;;;;0.10;0.10;;;;;;;;;;5065262;28;20638;-70
2022/11/25 06:22:54;;;;;;;0.10;0.10;;;;;;;;;;5075395;28;20620;-70
2022/11/25 06:25:28;;;;;;;0.10;0.10;;;;;;;;;;5065998;28;20679;-70
2022/11/25 06:27:56;;;;;;;0.10;0.10;;;;;;;;;;5071147;28;20620;-70
2022/11/25 06:30:26;;;;;;;0.10;0.10;;;;;;;;;;5069771;28;21153;-70
2022/11/25 06:33:22;;;;;;;0.10;0.10;;;;;;;;;;5068245;28;20655;-73
2022/11/25 06:35:51;;;;;;;0.10;0.10;;;;;;;;;;5069386;28;20740;-71
2022/11/25 06:38:18;;;;;;;0.10;0.10;;;;;;;;;;5074863;28;20628;-69
2022/11/25 06:40:45;;;;;;;0.10;0.10;;;;;;;;;;5073025;28;20615;-70
2022/11/25 06:43:13;;;;;;;0.10;0.10;;;;;;;;;;5071887;28;20694;-69
2022/11/25 06:45:41;;;;;;;0.10;0.10;;;;;;;;;;5067346;28;20663;-69
2022/11/25 06:48:09;;;;;;;0.10;0.10;;;;;;;;;;5073563;28;20600;-72
2022/11/25 06:50:36;;;;;;;0.10;0.10;;;;;;;;;;5069703;28;20656;-73
2022/11/25 06:53:03;;;;;;;0.10;0.10;;;;;;;;;;5072529;28;20620;-70
2022/11/25 06:55:31;;;;;;;0.10;0.10;;;;;;;;;;5072395;28;21026;-70
2022/11/25 06:57:59;;;;;;;0.10;0.10;;;;;;;;;;5073639;28;20785;-71
2022/11/25 07:00:27;;;;;;;0.10;0.10;;;;;;;;;;5074928;28;20680;-70
2022/11/25 07:02:56;;;;;;;0.10;0.10;;;;;;;;;;5072005;28;20747;-70
2022/11/25 07:05:24;;;;;;;0.10;0.10;;;;;;;;;;5077376;28;20644;-70
2022/11/25 07:07:52;;;;;;;0.10;0.10;;;;;;;;;;5066765;28;21338;-70
2022/11/25 07:10:23;;;;;;;0.10;0.10;;;;;;;;;;5068356;28;20649;-70
2022/11/25 07:12:50;;;;;;;0.10;0.10;;;;;;;;;;5067897;28;20756;-69
2022/11/25 07:15:17;;;;;;;0.10;0.10;;;;;;;;;;5070054;28;21129;-69
2022/11/25 07:17:45;;;;;;;0.10;0.10;;;;;;;;;;5074795;28;20597;-71
2022/11/25 07:20:14;;;;;;;0.10;0.10;;;;;;;;;;5068720;28;20628;-69
2022/11/25 07:22:42;;;;;;;0.10;0.10;;;;;;;;;;5073708;28;20628;-69
2022/11/25 07:25:09;;;;;;;0.10;0.10;;;;;;;;;;5071159;28;20707;-69
2022/11/25 07:27:37;;;;;;;0.10;0.10;;;;;;;;;;5071494;28;20621;-71
2022/11/25 07:30:04;;;;;;;0.10;0.10;;;;;;;;;;5074776;28;21024;-71
2022/11/25 07:32:33;;;;;;;0.00;0.00;;;;;;;;;;5066447;28;20610;-71
2022/11/25 07:35:01;;;;;;;0.10;0.10;;;;;;;;;;5058248;28;20661;-71
2022/11/25 07:37:29;;;;;;;0.10;0.10;;;;;;;;;;5062662;28;20622;-71
2022/11/25 07:39:57;;;;;;;0.10;0.10;;;;;;;;;;5064707;28;20606;-71
2022/11/25 07:42:24;;;;;;;0.10;0.10;;;;;;;;;;5071632;28;20627;-72
2022/11/25 07:44:52;;;;;;;0.10;0.10;;;;;;;;;;5067490;28;20612;-72
2022/11/25 07:47:40;;;;;;;0.10;0.10;;;;;;;;;;5066605;28;20596;-72
2022/11/25 07:50:11;;;;;;;0.10;0.10;;;;;;;;;;5066577;28;20923;-72
2022/11/25 07:52:40;;;;;;;0.10;0.10;;;;;;;;;;5074916;28;20617;-72
2022/11/25 07:55:08;;;;;;;0.10;0.10;;;;;;;;;;5073092;28;21305;-71
2022/11/25 07:57:36;;;;;;;0.10;0.10;;;;;;;;;;5076381;28;20627;-70
2022/11/25 08:00:05;;;;;;;0.10;0.10;;;;;;;;;;5073305;28;20654;-70
2022/11/25 08:02:39;;;;;;;0.10;0.10;;;;;;;;;;5074602;28;20612;-71
2022/11/25 08:05:06;;;;;;;0.10;0.10;;;;;;;;;;5073501;28;20660;-69
2022/11/25 08:07:34;;;;;;;0.10;0.10;;;;;;;;;;5071513;28;20668;-70
2022/11/25 08:10:03;;;;;;;0.10;0.10;;;;;;;;;;5067286;28;21062;-70
2022/11/25 08:12:32;;;;;;;0.10;0.10;;;;;;;;;;5067965;28;20608;-72
2022/11/25 08:14:59;;;;;;;0.10;0.10;;;;;;;;;;5066485;28;20642;-71
2022/11/25 08:17:26;;;;;;;0.10;0.10;;;;;;;;;;5075301;28;20629;-69
2022/11/25 08:19:54;;;;;;;0.10;0.10;;;;;;;;;;5072257;28;20605;-71
2022/11/25 08:22:21;;;;;;;0.10;0.10;;;;;;;;;;5080253;28;20623;-71
2022/11/25 08:24:49;;;;;;;0.10;0.10;;;;;;;;;;5072416;28;20686;-70
2022/11/25 08:27:18;;;;;;;0.10;0.10;;;;;;;;;;5063638;28;20632;-72
2022/11/25 08:29:45;;;;;;;0.10;0.10;;;;;;;;;;5074524;28;20651;-71
2022/11/25 08:32:13;;;;;;;0.10;0.10;;;;;;;;;;5074610;28;20657;-71
2022/11/25 08:34:40;;;;;;;0.10;0.10;;;;;;;;;;5081410;28;20634;-72
2022/11/25 08:37:10;;;;;;;0.10;0.10;;;;;;;;;;5072907;28;20696;-72
2022/11/25 08:39:37;;;;;;;0.10;0.10;;;;;;;;;;5082872;28;20599;-71
2022/11/25 08:42:05;;;;;;;0.10;0.10;;;;;;;;;;5071719;28;20620;-73
2022/11/25 08:44:34;;;;;;;0.10;0.10;;;;;;;;;;5072364;28;21050;-72
2022/11/25 08:47:01;;;;;;;0.10;0.10;;;;;;;;;;5074789;28;20635;-71
2022/11/25 08:49:29;;;;;;;0.10;0.10;;;;;;;;;;5073114;28;20612;-71
2022/11/25 08:51:56;;;;;;;0.10;0.10;;;;;;;;;;5070470;28;20632;-70
2022/11/25 08:54:24;;;;;;;0.10;0.10;;;;;;;;;;5072380;28;20971;-70
2022/11/25 08:56:52;;;;;;;0.10;0.10;;;;;;;;;;5069913;28;20659;-71
2022/11/25 08:59:21;;;;;;;0.10;0.10;;;;;;;;;;5072666;28;20610;-70
2022/11/25 09:01:50;;;;;;;0.10;0.10;;;;;;;;;;5078557;28;20616;-70
2022/11/25 09:04:18;;;;;;;0.10;0.10;;;;;;;;;;5078357;28;20965;-70
2022/11/25 09:06:45;;;;;;;0.10;0.10;;;;;;;;;;5072470;28;20675;-70
2022/11/25 09:09:13;;;;;;;0.10;0.10;;;;;;;;;;5066663;28;20666;-72
2022/11/25 09:11:41;;;;;;;0.07;0.07;;;;;;;;;;5076054;28;20743;-73
2022/11/25 09:14:09;;;;;;;0.10;0.10;;;;;;;;;;5069181;28;20623;-72
2022/11/25 09:16:36;;;;;;;0.10;0.10;;;;;;;;;;5066129;28;20648;-72
2022/11/25 09:19:05;;;;;;;0.10;0.10;;;;;;;;;;5071005;28;20628;-72
2022/11/25 09:21:32;;;;;;;0.10;0.10;;;;;;;;;;5073525;28;20731;-72
2022/11/25 09:24:00;;;;;;;0.10;0.10;;;;;;;;;;5073625;28;20604;-72
2022/11/25 09:26:29;;;;;;;0.10;0.10;;;;;;;;;;5075477;28;20652;-71
2022/11/25 09:28:57;;;;;;;0.10;0.10;;;;;;;;;;5067495;28;20624;-71
2022/11/25 09:31:24;;;;;;;0.10;0.10;;;;;;;;;;5075696;28;20711;-71
2022/11/25 09:33:52;;;;;;;0.10;0.10;;;;;;;;;;5072558;28;20628;-72
2022/11/25 09:36:22;;;;;;;0.10;0.10;;;;;;;;;;5068057;28;20637;-72
2022/11/25 09:38:50;;;;;;;0.10;0.10;;;;;;;;;;5071803;28;20620;-71
2022/11/25 09:47:16;;;;;;;0.10;0.10;;;;;;;;;;5077230;28;21025;-71
2022/11/25 09:49:50;;;;;;;0.10;0.10;;;;;;;;;;5076483;28;20950;-72
2022/11/25 09:52:23;;;;;;;0.10;0.10;;;;;;;;;;5062910;28;20629;-72
2022/11/25 09:54:56;;;;;;;0.10;0.10;;;;;;;;;;5069522;28;20615;-73
2022/11/25 09:57:27;;;;;;;0.10;0.10;;;;;;;;;;5068549;28;20617;-72
2022/11/25 10:00:00;;;;;;;0.10;0.10;;;;;;;;;;5068419;28;20620;-72
2022/11/25 10:02:30;;;;;;;0.10;0.10;;;;;;;;;;5069506;28;20635;-73
2022/11/25 10:05:00;;;;;;;0.10;0.10;;;;;;;;;;5076542;28;20736;-72
2022/11/25 10:07:32;;;;;;;0.10;0.10;;;;;;;;;;5064832;28;20638;-72
2022/11/25 10:10:01;;;;;;;0.10;0.10;;;;;;;;;;5075072;28;20655;-71
2022/11/25 10:12:30;;;;;;;0.10;0.10;;;;;;;;;;5068265;28;20617;-73
2022/11/25 10:15:01;;;;;;;0.10;0.10;;;;;;;;;;5065469;28;20752;-71
2022/11/25 10:17:34;;;;;;;0.00;0.00;;;;;;;;;;5072702;28;20613;-73
2022/11/25 10:20:03;;;;;;;0.10;0.10;;;;;;;;;;5073942;28;20704;-71
2022/11/25 10:22:33;;;;;;;0.10;0.10;;;;;;;;;;5069177;28;20617;-72
2022/11/25 10:25:02;;;;;;;0.00;0.00;;;;;;;;;;5067616;28;21216;-72
2022/11/25 10:27:36;;;;;;;0.10;0.10;;;;;;;;;;5073953;28;20682;-72
2022/11/25 10:30:06;;;;;;;0.10;0.10;;;;;;;;;;5071292;28;20640;-71
2022/11/25 10:32:37;;;;;;;0.10;0.10;;;;;;;;;;5070828;28;20635;-72
2022/11/25 10:35:08;;;;;;;0.10;0.10;;;;;;;;;;5065566;28;20632;-71
2022/11/25 10:37:41;;;;;;;0.10;0.10;;;;;;;;;;5071503;28;20679;-72
2022/11/25 10:40:14;;;;;;;0.10;0.10;;;;;;;;;;5070437;28;20675;-71
2022/11/25 10:42:41;;;;;;;0.10;0.10;;;;;;;;;;5080517;28;20601;-71
2022/11/25 10:45:10;;;;;;;0.10;0.10;;;;;;;;;;5064513;28;20653;-71
2022/11/25 10:47:44;;;;;;;0.10;0.10;;;;;;;;;;5072844;28;21180;-71
2022/11/25 10:50:15;;;;;;;0.10;0.10;;;;;;;;;;5065630;28;20651;-71
2022/11/25 10:52:50;;;;;;;0.10;0.10;;;;;;;;;;5064525;28;20625;-72
2022/11/25 10:55:19;;;;;;;0.10;0.10;;;;;;;;;;5061646;28;20675;-72
2022/11/25 10:57:46;;;;;;;0.10;0.10;;;;;;;;;;5067681;28;20613;-71
2022/11/25 11:00:32;;;;;;;0.10;0.10;;;;;;;;;;5076609;28;20678;-71
2022/11/25 11:03:01;;;;;;;0.10;0.10;;;;;;;;;;5074837;28;20623;-72
2022/11/25 11:05:29;;;;;;;0.00;0.00;;;;;;;;;;5066683;28;20666;-70
2022/11/25 11:08:17;;;;;;;0.10;0.10;;;;;;;;;;5064183;28;20640;-70
2022/11/25 11:10:44;;;;;;;0.03;0.03;;;;;;;;;;5071955;28;20691;-70
2022/11/25 11:13:21;;;;;;;0.00;0.00;;;;;;;;;;5071537;28;20616;-71
2022/11/25 11:15:48;;;;;;;0.10;0.10;;;;;;;;;;5071493;28;20663;-71
2022/11/25 11:18:22;;;;;;;0.10;0.10;;;;;;;;;;5065963;28;20620;-71
2022/11/25 11:20:51;;;;;;;0.10;0.10;;;;;;;;;;5070783;28;20624;-72
2022/11/25 11:23:20;;;;;;;0.10;0.10;;;;;;;;;;5068159;28;20612;-71
2022/11/25 11:25:56;;;;;;;0.00;0.00;;;;;;;;;;5070249;28;20652;-70
2022/11/25 11:28:26;;;;;;;0.10;0.10;;;;;;;;;;5067433;28;20624;-70
2022/11/25 11:30:57;;;;;;;0.10;0.10;;;;;;;;;;5068908;28;20679;-71
2022/11/25 11:33:30;;;;;;;0.10;0.10;;;;;;;;;;5075032;28;20638;-71
2022/11/25 11:36:00;;;;;;;0.00;0.00;;;;;;;;;;5073114;28;21004;-72
2022/11/25 11:38:33;;;;;;;0.00;0.00;;;;;;;;;;5077812;28;20619;-71
2022/11/25 11:41:06;;;;;;;0.10;0.10;;;;;;;;;;5070104;28;20620;-71
2022/11/25 11:43:53;;;;;;;0.10;0.10;;;;;;;;;;5067643;28;21214;-71
2022/11/25 11:46:28;;;;;;;0.10;0.10;;;;;;;;;;5069912;28;20648;-70
2022/11/25 11:49:01;;;;;;;0.00;0.00;;;;;;;;;;5068344;28;20606;-70
2022/11/25 11:51:33;;;;;;;0.10;0.10;;;;;;;;;;5074618;28;20706;-71
2022/11/25 11:54:06;;;;;;;0.10;0.10;;;;;;;;;;5068122;28;20717;-71
2022/11/25 11:56:37;;;;;;;0.00;0.00;;;;;;;;;;5072997;28;20660;-71
2022/11/25 11:59:13;;;;;;;0.00;0.00;;;;;;;;;;5072291;28;20624;-70
2022/11/25 12:01:46;;;;;;;0.00;0.00;;;;;;;;;;5070721;28;20617;-70
2022/11/25 12:04:17;;;;;;;0.10;0.10;;;;;;;;;;5073105;28;20604;-70
2022/11/25 12:06:47;;;;;;;0.10;0.10;;;;;;;;;;5071434;28;20664;-70
2022/11/25 12:09:19;;;;;;;0.10;0.10;;;;;;;;;;5068196;28;20617;-70
2022/11/25 12:11:51;;;;;;;0.10;0.10;;;;;;;;;;5074254;28;20697;-71
2022/11/25 12:14:26;;;;;;;0.10;0.10;;;;;;;;;;5068704;28;20617;-71
2022/11/25 12:16:56;;;;;;;0.10;0.10;;;;;;;;;;5070355;28;20730;-70
2022/11/25 12:19:27;;;;;;;0.10;0.10;;;;;;;;;;5067606;28;21187;-71
2022/11/25 12:21:57;;;;;;;0.10;0.10;;;;;;;;;;5068212;28;20624;-71
2022/11/25 12:24:30;;;;;;;0.10;0.10;;;;;;;;;;5070048;28;20685;-71
2022/11/25 12:27:01;;;;;;;0.10;0.10;;;;;;;;;;5065539;28;20695;-72
2022/11/25 12:29:34;;;;;;;0.10;0.10;;;;;;;;;;5069320;28;21067;-70
2022/11/25 12:32:08;;;;;;;0.10;0.10;;;;;;;;;;5071064;28;20653;-72
2022/11/25 12:34:39;;;;;;;0.10;0.10;;;;;;;;;;5076019;28;20616;-72
2022/11/25 12:37:10;;;;;;;0.10;0.10;;;;;;;;;;5070611;28;20607;-70
2022/11/25 12:39:41;;;;;;;0.10;0.10;;;;;;;;;;5067978;28;20983;-70
2022/11/25 12:42:14;;;;;;;0.00;0.00;;;;;;;;;;5078798;28;20631;-72
2022/11/25 12:44:51;;;;;;;0.10;0.10;;;;;;;;;;5076587;28;20624;-71
2022/11/25 12:47:20;;;;;;;0.00;0.00;;;;;;;;;;5073557;28;20633;-71
2022/11/25 12:49:49;;;;;;;0.10;0.10;;;;;;;;;;5068425;28;20632;-71
2022/11/25 12:52:24;;;;;;;0.00;0.00;;;;;;;;;;5058800;28;20664;-70
2022/11/25 12:55:11;;;;;;;0.10;0.10;;;;;;;;;;5058255;28;20664;-70
2022/11/25 12:57:54;;;;;;;0.10;0.10;;;;;;;;;;5065756;28;20976;-69
2022/11/25 13:00:24;;;;;;;0.00;0.00;;;;;;;;;;5051706;28;20632;-70
2022/11/25 13:03:00;;;;;;;0.10;0.10;;;;;;;;;;5070728;28;21012;-70
2022/11/25 13:05:45;;;;;;;0.10;0.10;;;;;;;;;;5065872;28;20648;-70
2022/11/25 13:08:19;;;;;;;0.10;0.10;;;;;;;;;;5035326;28;20616;-71
2022/11/25 13:10:56;;;;;;;0.10;0.10;;;;;;;;;;5071219;28;20693;-71
2022/11/25 13:13:38;;;;;;;0.00;0.00;;;;;;;;;;5070880;28;20617;-70
2022/11/25 13:16:08;;;;;;;0.10;0.10;;;;;;;;;;5070677;28;20647;-71
2022/11/25 13:18:38;;;;;;;0.07;0.07;;;;;;;;;;5074628;28;20618;-70
2022/11/25 13:21:07;;;;;;;0.00;0.00;;;;;;;;;;5074098;28;20624;-70
2022/11/25 13:23:56;;;;;;;0.00;0.00;;;;;;;;;;5071861;28;20628;-71
2022/11/25 13:26:42;;;;;;;0.10;0.10;;;;;;;;;;5068165;28;20644;-69
2022/11/25 13:29:28;;;;;;;0.00;0.00;;;;;;;;;;5071987;28;20730;-70
2022/11/25 13:32:04;;;;;;;0.00;0.00;;;;;;;;;;5060078;28;20664;-70
2022/11/25 13:34:35;;;;;;;0.10;0.10;;;;;;;;;;5074711;28;20612;-70
2022/11/25 13:37:24;;;;;;;0.03;0.03;;;;;;;;;;5071291;28;20640;-72
2022/11/25 13:40:12;;;;;;;0.00;0.00;;;;;;;;;;5067877;28;20627;-73
2022/11/25 13:42:44;;;;;;;0.10;0.10;;;;;;;;;;5065035;28;20614;-71
2022/11/25 13:45:26;;;;;;;0.10;0.10;;;;;;;;;;5067125;28;20700;-70
2022/11/25 13:47:56;;;;;;;0.07;0.07;;;;;;;;;;5066445;28;20616;-70
2022/11/25 13:50:24;;;;;;;0.07;0.07;;;;;;;;;;5063587;28;20610;-71
2022/11/25 13:52:59;;;;;;;0.00;0.00;;;;;;;;;;5066980;28;20761;-72
2022/11/25 13:55:35;;;;;;;0.10;0.10;;;;;;;;;;5060119;28;20684;-72
2022/11/25 13:58:06;;;;;;;0.00;0.00;;;;;;;;;;5068418;28;20632;-71
2022/11/25 14:00:48;;;;;;;0.00;0.00;;;;;;;;;;5065056;28;20626;-72
2022/11/25 14:03:40;;;;;;;0.07;0.07;;;;;;;;;;5057303;28;20638;-72
2022/11/25 14:06:12;;;;;;;0.00;0.00;;;;;;;;;;5067878;28;20739;-74
2022/11/25 14:08:45;;;;;;;0.10;0.10;;;;;;;;;;5067031;28;20644;-71
2022/11/25 14:11:32;;;;;;;0.10;0.10;;;;;;;;;;5073153;28;20683;-72
2022/11/25 14:14:09;;;;;;;0.10;0.10;;;;;;;;;;5090449;28;20591;-71
2022/11/25 14:16:47;;;;;;;0.10;0.10;;;;;;;;;;5066785;28;20664;-72
2022/11/25 14:19:39;;;;;;;0.10;0.10;;;;;;;;;;5076928;28;20715;-71
2022/11/25 14:22:14;;;;;;;0.00;0.00;;;;;;;;;;5071906;28;20662;-69
2022/11/25 14:24:43;;;;;;;0.10;0.10;;;;;;;;;;5083808;28;20715;-70
2022/11/25 14:27:14;;;;;;;0.10;0.10;;;;;;;;;;5080453;28;20686;-72
2022/11/25 14:29:44;;;;;;;0.00;0.00;;;;;;;;;;5078648;28;21165;-72
2022/11/25 14:32:13;;;;;;;0.10;0.10;;;;;;;;;;5076911;28;20721;-73
2022/11/25 14:34:42;;;;;;;0.10;0.10;;;;;;;;;;5082192;28;20632;-73
2022/11/25 14:37:14;;;;;;;0.10;0.10;;;;;;;;;;5082886;28;20604;-73
2022/11/25 14:39:45;;;;;;;0.10;0.10;;;;;;;;;;5067563;28;20628;-74
2022/11/25 14:42:15;;;;;;;0.00;0.00;;;;;;;;;;5058188;28;20627;-73
2022/11/25 14:44:47;;;;;;;0.10;0.10;;;;;;;;;;5061078;28;20725;-73
2022/11/25 14:47:14;;;;;;;0.10;0.10;;;;;;;;;;5068475;28;20655;-73
2022/11/25 14:49:45;;;;;;;0.10;0.10;;;;;;;;;;5082957;28;20638;-73
2022/11/25 14:52:18;;;;;;;0.10;0.10;;;;;;;;;;5081301;28;20652;-74
2022/11/25 14:54:46;;;;;;;0.00;0.00;;;;;;;;;;5078077;28;20627;-73
2022/11/25 14:57:13;;;;;;;0.10;0.10;;;;;;;;;;5077695;28;20616;-73
2022/11/25 14:59:41;;;;;;;0.00;0.00;;;;;;;;;;5092669;28;20604;-73
2022/11/25 15:02:22;;;;;;;0.10;0.10;;;;;;;;;;5092875;28;20603;-74
2022/11/25 15:04:50;;;;;;;0.10;0.10;;;;;;;;;;5075519;28;20627;-73
2022/11/25 15:07:20;;;;;;;0.10;0.10;;;;;;;;;;5076396;28;20633;-74
2022/11/25 15:09:49;;;;;;;0.10;0.10;;;;;;;;;;5077230;28;20616;-74
2022/11/25 15:12:17;;;;;;;0.10;0.10;;;;;;;;;;5082537;28;20661;-73
2022/11/25 15:14:49;;;;;;;0.10;0.10;;;;;;;;;;5093807;28;21284;-75
2022/11/25 15:17:21;;;;;;;0.10;0.10;;;;;;;;;;5076856;28;20646;-74